sensor_id;sensor_type;location;lat;lon;timestamp;P1;durP1;ratioP1;P2;durP2;ratioP2
55218;SDS011;65463;43.864;20.136;2023-12-22T00:00:54;152.75;;;48.38;;
55218;SDS011;65463;43.864;20.136;2023-12-22T00:03:20;169.43;;;50.35;;
55218;SDS011;65463;43.864;20.136;2023-12-22T00:05:46;185.25;;;51.25;;
55218;SDS011;65463;43.864;20.136;2023-12-22T00:08:12;158.82;;;50.00;;
55218;SDS011;65463;43.864;20.136;2023-12-22T00:10:38;154.52;;;50.25;;
55218;SDS011;65463;43.864;20.136;2023-12-22T00:13:04;160.02;;;49.90;;
55218;SDS011;65463;43.864;20.136;2023-12-22T00:15:30;153.60;;;50.55;;
55218;SDS011;65463;43.864;20.136;2023-12-22T00:17:57;156.02;;;50.38;;
55218;SDS011;65463;43.864;20.136;2023-12-22T00:20:23;155.70;;;50.65;;
55218;SDS011;65463;43.864;20.136;2023-12-22T00:22:49;140.77;;;49.00;;
55218;SDS011;65463;43.864;20.136;2023-12-22T00:25:15;134.95;;;48.55;;
55218;SDS011;65463;43.864;20.136;2023-12-22T00:27:44;143.32;;;49.50;;
55218;SDS011;65463;43.864;20.136;2023-12-22T00:30:10;147.43;;;50.92;;
55218;SDS011;65463;43.864;20.136;2023-12-22T00:32:36;133.68;;;49.42;;
55218;SDS011;65463;43.864;20.136;2023-12-22T00:35:03;134.43;;;46.88;;
55218;SDS011;65463;43.864;20.136;2023-12-22T00:37:29;167.85;;;50.67;;
55218;SDS011;65463;43.864;20.136;2023-12-22T00:39:55;165.15;;;50.55;;
55218;SDS011;65463;43.864;20.136;2023-12-22T00:42:22;144.35;;;48.50;;
55218;SDS011;65463;43.864;20.136;2023-12-22T00:44:48;151.50;;;49.45;;
55218;SDS011;65463;43.864;20.136;2023-12-22T00:47:14;130.50;;;46.95;;
55218;SDS011;65463;43.864;20.136;2023-12-22T00:49:40;143.80;;;49.83;;
55218;SDS011;65463;43.864;20.136;2023-12-22T00:52:07;131.05;;;49.17;;
55218;SDS011;65463;43.864;20.136;2023-12-22T00:54:33;132.15;;;48.38;;
55218;SDS011;65463;43.864;20.136;2023-12-22T00:56:59;139.70;;;50.42;;
55218;SDS011;65463;43.864;20.136;2023-12-22T00:59:25;159.93;;;59.17;;
55218;SDS011;65463;43.864;20.136;2023-12-22T01:01:51;130.05;;;50.13;;
55218;SDS011;65463;43.864;20.136;2023-12-22T01:04:20;129.52;;;49.33;;
55218;SDS011;65463;43.864;20.136;2023-12-22T01:06:51;128.93;;;47.15;;
55218;SDS011;65463;43.864;20.136;2023-12-22T01:09:18;118.53;;;46.72;;
55218;SDS011;65463;43.864;20.136;2023-12-22T01:11:45;115.32;;;45.70;;
55218;SDS011;65463;43.864;20.136;2023-12-22T01:14:11;113.53;;;43.35;;
55218;SDS011;65463;43.864;20.136;2023-12-22T01:16:40;92.63;;;36.25;;
55218;SDS011;65463;43.864;20.136;2023-12-22T01:19:07;94.05;;;39.17;;
55218;SDS011;65463;43.864;20.136;2023-12-22T01:21:35;91.65;;;39.92;;
55218;SDS011;65463;43.864;20.136;2023-12-22T01:24:02;92.55;;;37.95;;
55218;SDS011;65463;43.864;20.136;2023-12-22T01:26:28;96.93;;;38.65;;
55218;SDS011;65463;43.864;20.136;2023-12-22T01:28:54;87.68;;;37.88;;
55218;SDS011;65463;43.864;20.136;2023-12-22T01:31:20;85.72;;;38.33;;
55218;SDS011;65463;43.864;20.136;2023-12-22T01:33:47;86.03;;;38.45;;
55218;SDS011;65463;43.864;20.136;2023-12-22T01:36:15;100.00;;;40.20;;
55218;SDS011;65463;43.864;20.136;2023-12-22T01:38:41;104.20;;;40.67;;
55218;SDS011;65463;43.864;20.136;2023-12-22T01:41:08;105.85;;;42.58;;
55218;SDS011;65463;43.864;20.136;2023-12-22T01:43:34;112.18;;;45.15;;
55218;SDS011;65463;43.864;20.136;2023-12-22T01:46:00;119.03;;;45.75;;
55218;SDS011;65463;43.864;20.136;2023-12-22T01:48:27;124.93;;;48.38;;
55218;SDS011;65463;43.864;20.136;2023-12-22T01:50:54;137.07;;;48.97;;
55218;SDS011;65463;43.864;20.136;2023-12-22T01:53:21;115.28;;;46.78;;
55218;SDS011;65463;43.864;20.136;2023-12-22T01:55:48;112.07;;;42.80;;
55218;SDS011;65463;43.864;20.136;2023-12-22T01:58:14;109.53;;;42.60;;
55218;SDS011;65463;43.864;20.136;2023-12-22T02:00:40;94.85;;;39.63;;
55218;SDS011;65463;43.864;20.136;2023-12-22T02:03:07;117.93;;;44.67;;
55218;SDS011;65463;43.864;20.136;2023-12-22T02:05:33;109.90;;;41.28;;
55218;SDS011;65463;43.864;20.136;2023-12-22T02:07:59;101.22;;;41.15;;
55218;SDS011;65463;43.864;20.136;2023-12-22T02:10:26;101.75;;;41.17;;
55218;SDS011;65463;43.864;20.136;2023-12-22T02:12:52;97.80;;;40.05;;
55218;SDS011;65463;43.864;20.136;2023-12-22T02:15:18;99.88;;;40.00;;
55218;SDS011;65463;43.864;20.136;2023-12-22T02:20:14;100.28;;;38.75;;
55218;SDS011;65463;43.864;20.136;2023-12-22T02:22:40;97.22;;;39.30;;
55218;SDS011;65463;43.864;20.136;2023-12-22T02:25:06;103.97;;;38.85;;
55218;SDS011;65463;43.864;20.136;2023-12-22T02:30:02;109.97;;;40.85;;
55218;SDS011;65463;43.864;20.136;2023-12-22T02:32:30;93.40;;;41.10;;
55218;SDS011;65463;43.864;20.136;2023-12-22T02:34:56;103.85;;;42.50;;
55218;SDS011;65463;43.864;20.136;2023-12-22T02:37:23;104.63;;;42.85;;
55218;SDS011;65463;43.864;20.136;2023-12-22T02:39:53;106.05;;;42.15;;
55218;SDS011;65463;43.864;20.136;2023-12-22T02:42:19;96.85;;;42.58;;
55218;SDS011;65463;43.864;20.136;2023-12-22T02:44:51;88.05;;;40.40;;
55218;SDS011;65463;43.864;20.136;2023-12-22T02:47:17;92.82;;;40.72;;
55218;SDS011;65463;43.864;20.136;2023-12-22T02:49:43;90.38;;;39.65;;
55218;SDS011;65463;43.864;20.136;2023-12-22T02:52:09;90.57;;;39.28;;
55218;SDS011;65463;43.864;20.136;2023-12-22T02:54:36;92.20;;;40.33;;
55218;SDS011;65463;43.864;20.136;2023-12-22T02:57:05;84.65;;;38.70;;
55218;SDS011;65463;43.864;20.136;2023-12-22T02:59:31;84.80;;;39.53;;
55218;SDS011;65463;43.864;20.136;2023-12-22T03:01:57;81.57;;;37.15;;
55218;SDS011;65463;43.864;20.136;2023-12-22T03:04:23;85.65;;;38.78;;
55218;SDS011;65463;43.864;20.136;2023-12-22T03:06:51;84.38;;;39.25;;
55218;SDS011;65463;43.864;20.136;2023-12-22T03:09:17;72.82;;;33.75;;
55218;SDS011;65463;43.864;20.136;2023-12-22T03:11:47;81.85;;;37.67;;
55218;SDS011;65463;43.864;20.136;2023-12-22T03:14:13;74.50;;;37.70;;
55218;SDS011;65463;43.864;20.136;2023-12-22T03:16:39;81.65;;;40.63;;
55218;SDS011;65463;43.864;20.136;2023-12-22T03:19:08;86.35;;;40.05;;
55218;SDS011;65463;43.864;20.136;2023-12-22T03:21:34;85.32;;;40.42;;
55218;SDS011;65463;43.864;20.136;2023-12-22T03:24:00;76.22;;;37.03;;
55218;SDS011;65463;43.864;20.136;2023-12-22T03:26:27;82.03;;;37.40;;
55218;SDS011;65463;43.864;20.136;2023-12-22T03:28:53;78.07;;;36.83;;
55218;SDS011;65463;43.864;20.136;2023-12-22T03:31:19;83.57;;;39.92;;
55218;SDS011;65463;43.864;20.136;2023-12-22T03:33:48;79.20;;;37.38;;
55218;SDS011;65463;43.864;20.136;2023-12-22T03:36:14;71.10;;;34.05;;
55218;SDS011;65463;43.864;20.136;2023-12-22T03:38:40;68.43;;;34.80;;
55218;SDS011;65463;43.864;20.136;2023-12-22T03:41:06;72.68;;;34.33;;
55218;SDS011;65463;43.864;20.136;2023-12-22T03:43:33;72.43;;;32.25;;
55218;SDS011;65463;43.864;20.136;2023-12-22T03:45:59;66.60;;;31.38;;
55218;SDS011;65463;43.864;20.136;2023-12-22T03:48:25;65.97;;;31.75;;
55218;SDS011;65463;43.864;20.136;2023-12-22T03:50:51;70.30;;;33.63;;
55218;SDS011;65463;43.864;20.136;2023-12-22T03:53:17;70.78;;;32.60;;
55218;SDS011;65463;43.864;20.136;2023-12-22T03:55:43;74.57;;;33.78;;
55218;SDS011;65463;43.864;20.136;2023-12-22T03:58:09;75.63;;;36.45;;
55218;SDS011;65463;43.864;20.136;2023-12-22T04:00:36;68.30;;;31.45;;
55218;SDS011;65463;43.864;20.136;2023-12-22T04:03:02;66.40;;;31.23;;
55218;SDS011;65463;43.864;20.136;2023-12-22T04:05:28;74.32;;;35.15;;
55218;SDS011;65463;43.864;20.136;2023-12-22T04:07:55;78.18;;;34.55;;
55218;SDS011;65463;43.864;20.136;2023-12-22T04:10:21;76.28;;;33.75;;
55218;SDS011;65463;43.864;20.136;2023-12-22T04:12:47;76.28;;;33.50;;
55218;SDS011;65463;43.864;20.136;2023-12-22T04:15:13;75.13;;;35.15;;
55218;SDS011;65463;43.864;20.136;2023-12-22T04:17:39;82.78;;;35.10;;
55218;SDS011;65463;43.864;20.136;2023-12-22T04:20:06;66.97;;;32.83;;
55218;SDS011;65463;43.864;20.136;2023-12-22T04:22:32;68.63;;;30.90;;
55218;SDS011;65463;43.864;20.136;2023-12-22T04:24:59;82.15;;;37.15;;
55218;SDS011;65463;43.864;20.136;2023-12-22T04:27:25;71.10;;;31.63;;
55218;SDS011;65463;43.864;20.136;2023-12-22T04:29:51;75.65;;;35.10;;
55218;SDS011;65463;43.864;20.136;2023-12-22T04:32:17;75.38;;;34.17;;
55218;SDS011;65463;43.864;20.136;2023-12-22T04:34:44;69.65;;;33.35;;
55218;SDS011;65463;43.864;20.136;2023-12-22T04:37:10;70.55;;;35.10;;
55218;SDS011;65463;43.864;20.136;2023-12-22T04:39:36;68.22;;;32.30;;
55218;SDS011;65463;43.864;20.136;2023-12-22T04:42:02;67.93;;;33.30;;
55218;SDS011;65463;43.864;20.136;2023-12-22T04:44:28;75.60;;;32.53;;
55218;SDS011;65463;43.864;20.136;2023-12-22T04:46:54;74.93;;;33.78;;
55218;SDS011;65463;43.864;20.136;2023-12-22T04:49:21;78.38;;;34.20;;
55218;SDS011;65463;43.864;20.136;2023-12-22T04:51:47;74.68;;;34.97;;
55218;SDS011;65463;43.864;20.136;2023-12-22T04:54:13;81.72;;;38.25;;
55218;SDS011;65463;43.864;20.136;2023-12-22T04:56:39;76.93;;;36.33;;
55218;SDS011;65463;43.864;20.136;2023-12-22T04:59:08;81.20;;;40.22;;
55218;SDS011;65463;43.864;20.136;2023-12-22T05:01:37;81.15;;;39.40;;
55218;SDS011;65463;43.864;20.136;2023-12-22T05:04:03;82.85;;;40.58;;
55218;SDS011;65463;43.864;20.136;2023-12-22T05:06:29;88.65;;;43.65;;
55218;SDS011;65463;43.864;20.136;2023-12-22T05:08:55;80.43;;;38.60;;
55218;SDS011;65463;43.864;20.136;2023-12-22T05:11:27;87.75;;;39.63;;
55218;SDS011;65463;43.864;20.136;2023-12-22T05:13:54;68.97;;;33.90;;
55218;SDS011;65463;43.864;20.136;2023-12-22T05:16:20;82.22;;;38.70;;
55218;SDS011;65463;43.864;20.136;2023-12-22T05:18:46;83.65;;;33.53;;
55218;SDS011;65463;43.864;20.136;2023-12-22T05:21:17;90.15;;;37.30;;
55218;SDS011;65463;43.864;20.136;2023-12-22T05:23:43;82.00;;;35.40;;
55218;SDS011;65463;43.864;20.136;2023-12-22T05:26:09;87.00;;;36.28;;
55218;SDS011;65463;43.864;20.136;2023-12-22T05:28:35;70.57;;;29.63;;
55218;SDS011;65463;43.864;20.136;2023-12-22T05:31:04;80.22;;;35.15;;
55218;SDS011;65463;43.864;20.136;2023-12-22T05:33:30;78.03;;;34.58;;
55218;SDS011;65463;43.864;20.136;2023-12-22T05:35:56;64.05;;;30.75;;
55218;SDS011;65463;43.864;20.136;2023-12-22T05:38:23;61.63;;;28.63;;
55218;SDS011;65463;43.864;20.136;2023-12-22T05:40:51;67.28;;;29.67;;
55218;SDS011;65463;43.864;20.136;2023-12-22T05:43:17;62.90;;;28.98;;
55218;SDS011;65463;43.864;20.136;2023-12-22T05:45:43;70.60;;;29.13;;
55218;SDS011;65463;43.864;20.136;2023-12-22T05:48:10;84.15;;;39.58;;
55218;SDS011;65463;43.864;20.136;2023-12-22T05:50:36;68.82;;;31.73;;
55218;SDS011;65463;43.864;20.136;2023-12-22T05:53:02;74.03;;;33.33;;
55218;SDS011;65463;43.864;20.136;2023-12-22T05:55:28;71.40;;;33.50;;
55218;SDS011;65463;43.864;20.136;2023-12-22T05:57:54;89.05;;;38.88;;
55218;SDS011;65463;43.864;20.136;2023-12-22T06:00:21;87.90;;;38.08;;
55218;SDS011;65463;43.864;20.136;2023-12-22T06:02:47;78.53;;;34.72;;
55218;SDS011;65463;43.864;20.136;2023-12-22T06:05:13;67.32;;;34.55;;
55218;SDS011;65463;43.864;20.136;2023-12-22T06:07:40;54.88;;;30.08;;
55218;SDS011;65463;43.864;20.136;2023-12-22T06:10:06;60.70;;;32.97;;
55218;SDS011;65463;43.864;20.136;2023-12-22T06:12:34;57.70;;;29.48;;
55218;SDS011;65463;43.864;20.136;2023-12-22T06:15:03;55.83;;;29.77;;
55218;SDS011;65463;43.864;20.136;2023-12-22T06:17:29;49.08;;;27.40;;
55218;SDS011;65463;43.864;20.136;2023-12-22T06:19:55;81.97;;;39.95;;
55218;SDS011;65463;43.864;20.136;2023-12-22T06:22:26;75.22;;;35.25;;
55218;SDS011;65463;43.864;20.136;2023-12-22T06:24:52;77.82;;;36.53;;
55218;SDS011;65463;43.864;20.136;2023-12-22T06:27:18;81.82;;;34.42;;
55218;SDS011;65463;43.864;20.136;2023-12-22T06:29:45;77.70;;;35.88;;
55218;SDS011;65463;43.864;20.136;2023-12-22T06:32:11;85.20;;;40.33;;
55218;SDS011;65463;43.864;20.136;2023-12-22T06:34:37;89.43;;;44.45;;
55218;SDS011;65463;43.864;20.136;2023-12-22T06:37:03;87.28;;;43.03;;
55218;SDS011;65463;43.864;20.136;2023-12-22T06:39:29;79.03;;;40.08;;
55218;SDS011;65463;43.864;20.136;2023-12-22T06:41:56;86.90;;;41.15;;
55218;SDS011;65463;43.864;20.136;2023-12-22T06:44:22;81.32;;;37.85;;
55218;SDS011;65463;43.864;20.136;2023-12-22T06:46:50;76.85;;;37.40;;
55218;SDS011;65463;43.864;20.136;2023-12-22T06:49:17;72.95;;;34.67;;
55218;SDS011;65463;43.864;20.136;2023-12-22T06:51:43;72.75;;;35.80;;
55218;SDS011;65463;43.864;20.136;2023-12-22T06:54:09;83.38;;;41.13;;
55218;SDS011;65463;43.864;20.136;2023-12-22T06:56:36;72.00;;;33.45;;
55218;SDS011;65463;43.864;20.136;2023-12-22T06:59:02;72.13;;;34.70;;
55218;SDS011;65463;43.864;20.136;2023-12-22T07:01:29;87.88;;;39.92;;
55218;SDS011;65463;43.864;20.136;2023-12-22T07:06:29;77.65;;;32.97;;
55218;SDS011;65463;43.864;20.136;2023-12-22T07:11:22;116.03;;;46.58;;
55218;SDS011;65463;43.864;20.136;2023-12-22T07:13:48;101.57;;;44.50;;
55218;SDS011;65463;43.864;20.136;2023-12-22T07:16:14;104.38;;;43.88;;
55218;SDS011;65463;43.864;20.136;2023-12-22T07:18:40;98.10;;;41.65;;
55218;SDS011;65463;43.864;20.136;2023-12-22T07:21:07;50.15;;;23.65;;
55218;SDS011;65463;43.864;20.136;2023-12-22T07:23:33;79.93;;;34.70;;
55218;SDS011;65463;43.864;20.136;2023-12-22T07:25:59;76.43;;;32.65;;
55218;SDS011;65463;43.864;20.136;2023-12-22T07:28:28;26.60;;;12.82;;
55218;SDS011;65463;43.864;20.136;2023-12-22T07:30:55;20.15;;;9.15;;
55218;SDS011;65463;43.864;20.136;2023-12-22T07:33:24;9.25;;;5.10;;
55218;SDS011;65463;43.864;20.136;2023-12-22T07:35:50;6.77;;;4.33;;
55218;SDS011;65463;43.864;20.136;2023-12-22T07:38:16;7.82;;;4.60;;
55218;SDS011;65463;43.864;20.136;2023-12-22T07:40:42;6.20;;;4.07;;
55218;SDS011;65463;43.864;20.136;2023-12-22T07:43:08;7.88;;;4.10;;
55218;SDS011;65463;43.864;20.136;2023-12-22T07:45:34;8.32;;;5.00;;
55218;SDS011;65463;43.864;20.136;2023-12-22T07:47:59;12.35;;;7.25;;
55218;SDS011;65463;43.864;20.136;2023-12-22T07:50:26;6.72;;;3.47;;
55218;SDS011;65463;43.864;20.136;2023-12-22T07:52:52;6.10;;;3.80;;
55218;SDS011;65463;43.864;20.136;2023-12-22T07:55:19;8.38;;;3.78;;
55218;SDS011;65463;43.864;20.136;2023-12-22T07:57:45;9.10;;;4.80;;
55218;SDS011;65463;43.864;20.136;2023-12-22T08:00:11;6.45;;;4.15;;
55218;SDS011;65463;43.864;20.136;2023-12-22T08:02:37;6.78;;;4.25;;
55218;SDS011;65463;43.864;20.136;2023-12-22T08:05:04;6.88;;;4.50;;
55218;SDS011;65463;43.864;20.136;2023-12-22T08:07:30;9.85;;;4.63;;
55218;SDS011;65463;43.864;20.136;2023-12-22T08:09:56;11.05;;;6.20;;
55218;SDS011;65463;43.864;20.136;2023-12-22T08:12:23;8.52;;;5.63;;
55218;SDS011;65463;43.864;20.136;2023-12-22T08:14:49;8.48;;;5.15;;
55218;SDS011;65463;43.864;20.136;2023-12-22T08:17:15;8.73;;;5.65;;
55218;SDS011;65463;43.864;20.136;2023-12-22T08:19:41;6.82;;;4.25;;
55218;SDS011;65463;43.864;20.136;2023-12-22T08:22:09;14.00;;;5.28;;
55218;SDS011;65463;43.864;20.136;2023-12-22T08:24:35;32.35;;;6.60;;
55218;SDS011;65463;43.864;20.136;2023-12-22T08:27:02;23.27;;;7.60;;
55218;SDS011;65463;43.864;20.136;2023-12-22T08:29:28;20.75;;;8.38;;
55218;SDS011;65463;43.864;20.136;2023-12-22T08:31:54;19.55;;;8.55;;
55218;SDS011;65463;43.864;20.136;2023-12-22T08:34:20;15.50;;;7.18;;
55218;SDS011;65463;43.864;20.136;2023-12-22T08:36:46;22.25;;;8.52;;
55218;SDS011;65463;43.864;20.136;2023-12-22T08:39:13;16.50;;;6.57;;
55218;SDS011;65463;43.864;20.136;2023-12-22T08:41:39;17.38;;;7.15;;
55218;SDS011;65463;43.864;20.136;2023-12-22T08:44:05;11.48;;;6.70;;
55218;SDS011;65463;43.864;20.136;2023-12-22T08:46:32;13.35;;;5.88;;
55218;SDS011;65463;43.864;20.136;2023-12-22T08:48:58;12.55;;;6.60;;
55218;SDS011;65463;43.864;20.136;2023-12-22T08:51:28;10.07;;;6.10;;
55218;SDS011;65463;43.864;20.136;2023-12-22T08:53:54;13.25;;;4.60;;
55218;SDS011;65463;43.864;20.136;2023-12-22T08:56:21;7.68;;;3.88;;
55218;SDS011;65463;43.864;20.136;2023-12-22T08:58:48;13.57;;;4.70;;
55218;SDS011;65463;43.864;20.136;2023-12-22T09:01:16;15.20;;;6.30;;
55218;SDS011;65463;43.864;20.136;2023-12-22T09:03:43;15.52;;;7.30;;
55218;SDS011;65463;43.864;20.136;2023-12-22T09:06:21;15.38;;;8.25;;
55218;SDS011;65463;43.864;20.136;2023-12-22T09:08:47;18.55;;;9.93;;
55218;SDS011;65463;43.864;20.136;2023-12-22T09:11:15;17.52;;;10.52;;
55218;SDS011;65463;43.864;20.136;2023-12-22T09:13:42;19.77;;;12.25;;
55218;SDS011;65463;43.864;20.136;2023-12-22T09:16:08;21.15;;;11.80;;
55218;SDS011;65463;43.864;20.136;2023-12-22T09:18:35;22.70;;;13.27;;
55218;SDS011;65463;43.864;20.136;2023-12-22T09:21:01;29.50;;;14.40;;
55218;SDS011;65463;43.864;20.136;2023-12-22T09:23:30;26.83;;;14.73;;
55218;SDS011;65463;43.864;20.136;2023-12-22T09:25:59;27.77;;;15.07;;
55218;SDS011;65463;43.864;20.136;2023-12-22T09:30:55;22.17;;;12.57;;
55218;SDS011;65463;43.864;20.136;2023-12-22T09:33:24;24.63;;;13.38;;
55218;SDS011;65463;43.864;20.136;2023-12-22T09:35:50;24.05;;;13.07;;
55218;SDS011;65463;43.864;20.136;2023-12-22T09:38:16;25.40;;;13.65;;
55218;SDS011;65463;43.864;20.136;2023-12-22T09:40:43;26.17;;;13.90;;
55218;SDS011;65463;43.864;20.136;2023-12-22T09:43:09;21.38;;;12.55;;
55218;SDS011;65463;43.864;20.136;2023-12-22T09:45:37;19.00;;;10.77;;
55218;SDS011;65463;43.864;20.136;2023-12-22T09:48:04;19.60;;;11.80;;
55218;SDS011;65463;43.864;20.136;2023-12-22T09:50:31;37.55;;;18.85;;
55218;SDS011;65463;43.864;20.136;2023-12-22T09:52:59;29.25;;;14.68;;
55218;SDS011;65463;43.864;20.136;2023-12-22T09:55:26;25.15;;;14.45;;
55218;SDS011;65463;43.864;20.136;2023-12-22T09:57:53;24.85;;;14.20;;
55218;SDS011;65463;43.864;20.136;2023-12-22T10:00:23;26.67;;;15.13;;
55218;SDS011;65463;43.864;20.136;2023-12-22T10:02:49;27.33;;;15.02;;
55218;SDS011;65463;43.864;20.136;2023-12-22T10:05:16;25.55;;;15.75;;
55218;SDS011;65463;43.864;20.136;2023-12-22T10:07:44;24.80;;;15.55;;
55218;SDS011;65463;43.864;20.136;2023-12-22T10:10:11;28.67;;;16.48;;
55218;SDS011;65463;43.864;20.136;2023-12-22T10:12:38;25.40;;;15.80;;
55218;SDS011;65463;43.864;20.136;2023-12-22T10:15:07;26.33;;;15.80;;
55218;SDS011;65463;43.864;20.136;2023-12-22T10:17:34;24.40;;;16.17;;
55218;SDS011;65463;43.864;20.136;2023-12-22T10:20:01;33.28;;;19.55;;
55218;SDS011;65463;43.864;20.136;2023-12-22T10:22:28;38.50;;;19.30;;
55218;SDS011;65463;43.864;20.136;2023-12-22T10:24:54;35.97;;;19.38;;
55218;SDS011;65463;43.864;20.136;2023-12-22T10:27:21;37.80;;;20.23;;
55218;SDS011;65463;43.864;20.136;2023-12-22T10:29:50;55.03;;;25.50;;
55218;SDS011;65463;43.864;20.136;2023-12-22T10:32:16;59.60;;;26.48;;
55218;SDS011;65463;43.864;20.136;2023-12-22T10:34:43;26.58;;;13.02;;
55218;SDS011;65463;43.864;20.136;2023-12-22T10:37:09;22.40;;;10.70;;
55218;SDS011;65463;43.864;20.136;2023-12-22T10:39:38;14.00;;;8.55;;
55218;SDS011;65463;43.864;20.136;2023-12-22T10:42:04;13.10;;;7.47;;
55218;SDS011;65463;43.864;20.136;2023-12-22T10:44:33;19.20;;;10.10;;
55218;SDS011;65463;43.864;20.136;2023-12-22T10:46:59;15.85;;;9.50;;
55218;SDS011;65463;43.864;20.136;2023-12-22T10:49:26;16.38;;;9.25;;
55218;SDS011;65463;43.864;20.136;2023-12-22T10:51:52;17.35;;;9.73;;
55218;SDS011;65463;43.864;20.136;2023-12-22T10:54:19;18.48;;;11.20;;
55218;SDS011;65463;43.864;20.136;2023-12-22T10:56:45;15.32;;;8.95;;
55218;SDS011;65463;43.864;20.136;2023-12-22T10:59:17;13.75;;;8.48;;
55218;SDS011;65463;43.864;20.136;2023-12-22T11:01:44;15.63;;;8.80;;
55218;SDS011;65463;43.864;20.136;2023-12-22T11:04:13;17.17;;;9.50;;
55218;SDS011;65463;43.864;20.136;2023-12-22T11:06:41;14.18;;;7.10;;
55218;SDS011;65463;43.864;20.136;2023-12-22T11:09:08;12.68;;;6.50;;
55218;SDS011;65463;43.864;20.136;2023-12-22T11:11:38;12.88;;;8.02;;
55218;SDS011;65463;43.864;20.136;2023-12-22T11:14:05;14.57;;;7.75;;
55218;SDS011;65463;43.864;20.136;2023-12-22T11:16:32;28.27;;;12.27;;
55218;SDS011;65463;43.864;20.136;2023-12-22T11:19:02;18.42;;;9.77;;
55218;SDS011;65463;43.864;20.136;2023-12-22T11:21:29;18.15;;;9.98;;
55218;SDS011;65463;43.864;20.136;2023-12-22T11:23:56;18.27;;;9.00;;
55218;SDS011;65463;43.864;20.136;2023-12-22T11:26:23;19.70;;;11.50;;
55218;SDS011;65463;43.864;20.136;2023-12-22T11:28:52;22.75;;;13.70;;
55218;SDS011;65463;43.864;20.136;2023-12-22T11:31:23;20.58;;;11.95;;
55218;SDS011;65463;43.864;20.136;2023-12-22T11:33:51;20.38;;;11.65;;
55218;SDS011;65463;43.864;20.136;2023-12-22T11:36:18;17.08;;;9.45;;
55218;SDS011;65463;43.864;20.136;2023-12-22T11:38:44;20.75;;;11.20;;
55218;SDS011;65463;43.864;20.136;2023-12-22T11:41:16;16.23;;;9.85;;
55218;SDS011;65463;43.864;20.136;2023-12-22T11:43:44;16.65;;;9.13;;
55218;SDS011;65463;43.864;20.136;2023-12-22T11:46:10;15.07;;;9.00;;
55218;SDS011;65463;43.864;20.136;2023-12-22T11:48:37;12.82;;;6.65;;
55218;SDS011;65463;43.864;20.136;2023-12-22T11:51:14;9.27;;;5.57;;
55218;SDS011;65463;43.864;20.136;2023-12-22T11:53:41;16.42;;;7.95;;
55218;SDS011;65463;43.864;20.136;2023-12-22T11:56:08;12.18;;;6.28;;
55218;SDS011;65463;43.864;20.136;2023-12-22T11:58:38;13.38;;;6.68;;
55218;SDS011;65463;43.864;20.136;2023-12-22T12:01:11;11.35;;;6.80;;
55218;SDS011;65463;43.864;20.136;2023-12-22T12:08:48;9.25;;;5.70;;
55218;SDS011;65463;43.864;20.136;2023-12-22T12:11:16;10.30;;;5.20;;
55218;SDS011;65463;43.864;20.136;2023-12-22T12:13:44;9.77;;;5.43;;
55218;SDS011;65463;43.864;20.136;2023-12-22T12:16:18;13.25;;;6.82;;
55218;SDS011;65463;43.864;20.136;2023-12-22T12:18:48;11.27;;;5.57;;
55218;SDS011;65463;43.864;20.136;2023-12-22T12:21:18;14.02;;;6.70;;
55218;SDS011;65463;43.864;20.136;2023-12-22T12:23:44;18.08;;;9.02;;
55218;SDS011;65463;43.864;20.136;2023-12-22T12:26:10;19.25;;;10.05;;
55218;SDS011;65463;43.864;20.136;2023-12-22T12:28:40;16.17;;;9.10;;
55218;SDS011;65463;43.864;20.136;2023-12-22T12:31:10;20.35;;;10.30;;
55218;SDS011;65463;43.864;20.136;2023-12-22T12:33:37;11.80;;;6.63;;
55218;SDS011;65463;43.864;20.136;2023-12-22T12:36:03;15.20;;;7.63;;
55218;SDS011;65463;43.864;20.136;2023-12-22T12:38:36;15.57;;;9.48;;
55218;SDS011;65463;43.864;20.136;2023-12-22T12:41:06;12.98;;;7.65;;
55218;SDS011;65463;43.864;20.136;2023-12-22T12:43:32;15.48;;;9.95;;
55218;SDS011;65463;43.864;20.136;2023-12-22T12:46:04;10.35;;;6.80;;
55218;SDS011;65463;43.864;20.136;2023-12-22T12:48:31;14.23;;;7.63;;
55218;SDS011;65463;43.864;20.136;2023-12-22T12:51:01;22.15;;;11.30;;
55218;SDS011;65463;43.864;20.136;2023-12-22T12:53:29;15.07;;;8.57;;
55218;SDS011;65463;43.864;20.136;2023-12-22T12:55:56;8.52;;;4.55;;
55218;SDS011;65463;43.864;20.136;2023-12-22T12:58:31;16.05;;;7.70;;
55218;SDS011;65463;43.864;20.136;2023-12-22T13:01:04;13.55;;;6.28;;
55218;SDS011;65463;43.864;20.136;2023-12-22T13:03:31;8.65;;;4.85;;
55218;SDS011;65463;43.864;20.136;2023-12-22T13:06:07;6.88;;;3.83;;
55218;SDS011;65463;43.864;20.136;2023-12-22T13:08:33;33.58;;;12.52;;
55218;SDS011;65463;43.864;20.136;2023-12-22T13:11:00;20.83;;;9.95;;
55218;SDS011;65463;43.864;20.136;2023-12-22T13:13:27;20.65;;;10.15;;
55218;SDS011;65463;43.864;20.136;2023-12-22T13:15:55;14.30;;;6.95;;
55218;SDS011;65463;43.864;20.136;2023-12-22T13:18:24;16.05;;;8.05;;
55218;SDS011;65463;43.864;20.136;2023-12-22T13:20:50;9.73;;;5.90;;
55218;SDS011;65463;43.864;20.136;2023-12-22T13:23:17;10.15;;;5.43;;
55218;SDS011;65463;43.864;20.136;2023-12-22T13:25:44;12.05;;;6.63;;
55218;SDS011;65463;43.864;20.136;2023-12-22T13:28:11;11.25;;;6.25;;
55218;SDS011;65463;43.864;20.136;2023-12-22T13:30:40;11.52;;;6.18;;
55218;SDS011;65463;43.864;20.136;2023-12-22T13:33:10;9.75;;;5.00;;
55218;SDS011;65463;43.864;20.136;2023-12-22T13:35:39;9.45;;;5.50;;
55218;SDS011;65463;43.864;20.136;2023-12-22T13:38:05;9.02;;;5.28;;
55218;SDS011;65463;43.864;20.136;2023-12-22T13:40:34;8.90;;;5.07;;
55218;SDS011;65463;43.864;20.136;2023-12-22T13:43:01;8.63;;;4.65;;
55218;SDS011;65463;43.864;20.136;2023-12-22T13:45:27;7.95;;;4.30;;
55218;SDS011;65463;43.864;20.136;2023-12-22T13:47:54;10.52;;;4.50;;
55218;SDS011;65463;43.864;20.136;2023-12-22T13:50:20;8.55;;;4.63;;
55218;SDS011;65463;43.864;20.136;2023-12-22T13:52:50;10.77;;;6.07;;
55218;SDS011;65463;43.864;20.136;2023-12-22T13:55:17;11.93;;;6.18;;
55218;SDS011;65463;43.864;20.136;2023-12-22T13:57:44;12.68;;;6.78;;
55218;SDS011;65463;43.864;20.136;2023-12-22T14:02:42;8.65;;;4.80;;
55218;SDS011;65463;43.864;20.136;2023-12-22T14:05:08;13.93;;;7.32;;
55218;SDS011;65463;43.864;20.136;2023-12-22T14:07:40;28.05;;;14.73;;
55218;SDS011;65463;43.864;20.136;2023-12-22T14:10:09;17.90;;;8.93;;
55218;SDS011;65463;43.864;20.136;2023-12-22T14:12:36;18.80;;;10.65;;
55218;SDS011;65463;43.864;20.136;2023-12-22T14:15:08;16.13;;;9.02;;
55218;SDS011;65463;43.864;20.136;2023-12-22T14:17:35;16.77;;;9.57;;
55218;SDS011;65463;43.864;20.136;2023-12-22T14:20:01;21.77;;;11.52;;
55218;SDS011;65463;43.864;20.136;2023-12-22T14:22:27;16.20;;;8.60;;
55218;SDS011;65463;43.864;20.136;2023-12-22T14:24:53;14.45;;;8.27;;
55218;SDS011;65463;43.864;20.136;2023-12-22T14:27:22;16.80;;;7.70;;
55218;SDS011;65463;43.864;20.136;2023-12-22T14:29:48;12.20;;;6.85;;
55218;SDS011;65463;43.864;20.136;2023-12-22T14:32:15;12.38;;;6.07;;